createdAt,value
2022-10-13T00:01:22.006Z,9.54
2022-10-13T00:03:50.509Z,9.79
2022-10-13T00:06:25.167Z,9.75
2022-10-13T00:08:53.719Z,9.49
2022-10-13T00:11:23.889Z,9.10
2022-10-13T00:13:53.081Z,9.15
2022-10-13T00:16:21.639Z,9.21
2022-10-13T00:18:50.083Z,9.42
2022-10-13T00:21:20.219Z,9.54
2022-10-13T00:23:51.110Z,9.56
2022-10-13T00:26:22.038Z,9.42
2022-10-13T00:28:52.782Z,9.45
2022-10-13T00:31:28.418Z,9.15
2022-10-13T00:33:57.563Z,9.45
2022-10-13T00:36:25.963Z,9.13
2022-10-13T00:38:54.382Z,7.94
2022-10-13T00:41:22.884Z,8.18
2022-10-13T00:44:02.092Z,8.66
2022-10-13T00:46:31.982Z,8.94
2022-10-13T00:49:08.662Z,8.73
2022-10-13T00:51:41.326Z,9.19
2022-10-13T00:54:10.522Z,9.21
2022-10-13T00:56:38.951Z,9.08
2022-10-13T00:59:12.634Z,9.21
2022-10-13T01:01:42.644Z,9.32
2022-10-13T01:04:11.046Z,9.20
2022-10-13T01:06:39.430Z,8.90
2022-10-13T01:09:09.492Z,8.60
2022-10-13T01:12:00.300Z,8.98
2022-10-13T01:14:37.251Z,9.13
2022-10-13T01:17:40.898Z,9.03
2022-10-13T01:20:34.698Z,8.90
2022-10-13T01:23:33.812Z,8.95
2022-10-13T01:26:02.171Z,8.57
2022-10-13T01:28:48.392Z,8.94
2022-10-13T01:31:42.499Z,8.99
2022-10-13T01:34:22.440Z,9.01
2022-10-13T01:37:03.949Z,9.15
2022-10-13T01:39:50.449Z,9.24
2022-10-13T01:42:22.317Z,8.80
2022-10-13T01:44:59.585Z,9.24
2022-10-13T01:47:27.945Z,9.32
2022-10-13T01:49:56.373Z,9.48
2022-10-13T01:52:26.468Z,9.50
2022-10-13T01:54:54.786Z,9.41
2022-10-13T01:57:30.969Z,9.55
2022-10-13T02:00:07.052Z,9.67
2022-10-13T02:02:58.867Z,9.67
2022-10-13T02:06:07.617Z,9.70
2022-10-13T02:09:02.178Z,9.53
2022-10-13T02:11:30.820Z,9.34
2022-10-13T02:14:04.792Z,9.49
2022-10-13T02:16:36.609Z,8.97
2022-10-13T02:19:05.686Z,8.94
2022-10-13T02:21:35.559Z,9.15
2022-10-13T02:24:04.659Z,9.46
2022-10-13T02:26:33.438Z,9.49
2022-10-13T02:29:12.196Z,9.50
2022-10-13T02:31:40.942Z,9.18
2022-10-13T02:34:09.291Z,8.80
2022-10-13T02:36:40.622Z,8.73
2022-10-13T02:39:09.909Z,9.33
2022-10-13T02:41:38.444Z,9.17
2022-10-13T02:44:06.992Z,9.41
2022-10-13T02:46:35.721Z,9.40
2022-10-13T02:49:04.102Z,9.40
2022-10-13T02:51:35.150Z,9.40
2022-10-13T02:54:07.469Z,9.62
2022-10-13T02:56:35.864Z,9.45
2022-10-13T02:59:04.308Z,9.51
2022-10-13T03:01:33.327Z,9.56
2022-10-13T03:04:01.628Z,9.74
2022-10-13T03:06:29.978Z,9.45
2022-10-13T03:08:58.258Z,9.59
2022-10-13T03:11:26.590Z,9.59
2022-10-13T03:13:55.048Z,9.45
2022-10-13T03:16:23.480Z,9.66
2022-10-13T03:18:51.856Z,9.64
2022-10-13T03:21:20.191Z,9.41
2022-10-13T03:23:48.629Z,9.61
2022-10-13T03:26:17.018Z,9.36
2022-10-13T03:28:51.865Z,9.41
2022-10-13T03:31:20.351Z,9.58
2022-10-13T03:33:48.859Z,9.11
2022-10-13T03:36:17.134Z,9.13
2022-10-13T03:38:47.733Z,9.22
2022-10-13T03:41:17.746Z,8.91
2022-10-13T03:43:51.094Z,9.39
2022-10-13T03:46:19.480Z,9.40
2022-10-13T03:48:48.385Z,9.29
2022-10-13T03:51:20.341Z,8.69
2022-10-13T03:53:50.719Z,9.31
2022-10-13T03:56:21.240Z,9.36
2022-10-13T03:58:57.173Z,9.11
2022-10-13T04:01:27.215Z,8.74
2022-10-13T04:03:55.957Z,8.69
2022-10-13T04:06:24.734Z,9.31
2022-10-13T04:08:53.103Z,9.51
2022-10-13T04:11:21.571Z,9.54
2022-10-13T04:13:53.544Z,9.58
2022-10-13T04:16:26.530Z,9.50
2022-10-13T04:19:02.373Z,9.69
2022-10-13T04:21:31.415Z,9.77
2022-10-13T04:23:59.993Z,9.32
2022-10-13T04:26:29.569Z,8.84
2022-10-13T04:29:00.094Z,9.10
2022-10-13T04:31:29.130Z,9.16
2022-10-13T04:33:57.668Z,9.00
2022-10-13T04:36:26.184Z,8.75
2022-10-13T04:38:55.181Z,8.88
2022-10-13T04:41:23.957Z,8.90
2022-10-13T04:43:52.869Z,8.86
2022-10-13T04:46:26.539Z,9.01
2022-10-13T04:48:56.166Z,9.02
2022-10-13T04:51:30.393Z,9.34
2022-10-13T04:53:59.542Z,9.52
2022-10-13T04:56:28.135Z,9.24
2022-10-13T04:59:01.958Z,9.40
2022-10-13T05:01:30.490Z,9.56
2022-10-13T05:04:00.857Z,9.55
2022-10-13T05:06:31.469Z,9.58
2022-10-13T05:08:59.963Z,9.66
2022-10-13T05:11:28.784Z,9.60
2022-10-13T05:13:57.952Z,9.51
2022-10-13T05:16:26.531Z,9.57
2022-10-13T05:18:55.248Z,9.45
2022-10-13T05:21:25.926Z,9.55
2022-10-13T05:23:55.886Z,9.55
2022-10-13T05:26:29.594Z,9.45
2022-10-13T05:29:01.093Z,9.52
2022-10-13T05:31:32.181Z,9.74
2022-10-13T05:34:01.324Z,9.70
2022-10-13T05:36:33.868Z,9.52
2022-10-13T05:39:04.486Z,9.69
2022-10-13T05:41:32.836Z,9.80
2022-10-13T05:44:02.377Z,9.78
2022-10-13T05:46:31.052Z,9.81
2022-10-13T05:48:59.413Z,9.88
2022-10-13T05:51:38.832Z,9.74
2022-10-13T05:54:21.087Z,9.77
2022-10-13T05:56:53.485Z,9.92
2022-10-13T05:59:26.768Z,9.82
2022-10-13T06:01:55.809Z,9.86
2022-10-13T06:04:30.847Z,9.83
2022-10-13T06:06:59.675Z,9.98
2022-10-13T06:09:35.975Z,10.12
2022-10-13T06:12:05.707Z,9.90
2022-10-13T06:14:34.209Z,9.94
2022-10-13T06:17:07.890Z,9.98
2022-10-13T06:19:40.617Z,9.96
2022-10-13T06:22:10.643Z,10.05
2022-10-13T06:24:40.285Z,10.02
2022-10-13T06:27:11.563Z,10.04
2022-10-13T06:29:40.450Z,9.92
2022-10-13T06:32:10.416Z,10.02
2022-10-13T06:34:39.080Z,9.83
2022-10-13T06:37:07.519Z,10.04
2022-10-13T06:39:35.899Z,10.06
2022-10-13T06:42:05.280Z,10.01
2022-10-13T06:44:39.068Z,9.86
2022-10-13T06:47:07.482Z,9.88
2022-10-13T06:49:35.980Z,10.17
2022-10-13T06:52:05.233Z,9.92
2022-10-13T06:54:36.556Z,10.27
2022-10-13T06:57:06.799Z,10.30
2022-10-13T06:59:35.226Z,10.11
2022-10-13T07:02:03.785Z,10.35
2022-10-13T07:04:32.233Z,9.51
2022-10-13T07:07:00.588Z,10.04
2022-10-13T07:09:29.053Z,10.36
2022-10-13T07:11:57.480Z,10.41
2022-10-13T07:14:25.977Z,10.26
2022-10-13T07:16:54.846Z,10.48
2022-10-13T07:19:23.211Z,10.56
2022-10-13T07:21:52.097Z,10.76
2022-10-13T07:24:21.420Z,10.83
2022-10-13T07:26:50.568Z,10.68
2022-10-13T07:29:19.170Z,10.79
2022-10-13T07:31:47.664Z,10.86
2022-10-13T07:34:17.066Z,10.54
2022-10-13T07:36:45.456Z,10.95
2022-10-13T07:39:15.644Z,11.20
2022-10-13T07:41:47.522Z,11.26
2022-10-13T07:44:19.249Z,11.33
2022-10-13T07:46:48.227Z,11.00
2022-10-13T07:49:16.861Z,11.48
2022-10-13T07:51:45.349Z,11.51
2022-10-13T07:54:14.269Z,11.31
2022-10-13T07:56:42.757Z,11.24
2022-10-13T07:59:11.490Z,11.42
2022-10-13T08:01:41.391Z,11.54
2022-10-13T08:04:09.860Z,11.42
2022-10-13T08:06:38.411Z,11.56
2022-10-13T08:09:10.118Z,11.56
2022-10-13T08:11:40.381Z,11.74
2022-10-13T08:14:10.311Z,11.96
2022-10-13T08:16:40.751Z,12.30
2022-10-13T08:19:09.258Z,12.58
2022-10-13T08:21:57.683Z,12.85
2022-10-13T08:24:27.017Z,13.01
2022-10-13T08:26:55.742Z,12.81
2022-10-13T08:29:24.650Z,13.03
2022-10-13T08:31:53.829Z,13.03
2022-10-13T08:34:23.483Z,12.79
2022-10-13T08:36:54.787Z,13.42
2022-10-13T08:39:24.693Z,13.27
2022-10-13T08:41:53.283Z,13.63
2022-10-13T08:44:59.540Z,13.11
2022-10-13T08:47:19.550Z,13.40
2022-10-13T08:49:48.169Z,13.91
2022-10-13T08:52:27.489Z,13.60
2022-10-13T08:54:56.472Z,13.69
2022-10-13T08:57:25.598Z,13.73
2022-10-13T08:59:54.647Z,13.62
2022-10-13T09:02:30.670Z,14.17
2022-10-13T09:04:59.961Z,14.41
2022-10-13T09:07:35.622Z,14.67
2022-10-13T09:10:04.465Z,14.90
2022-10-13T09:12:34.225Z,14.83
2022-10-13T09:15:13.059Z,14.97
2022-10-13T09:17:41.725Z,15.12
2022-10-13T09:20:19.160Z,14.81
2022-10-13T09:23:06.575Z,15.01
2022-10-13T09:25:50.810Z,15.60
2022-10-13T09:28:29.285Z,15.31
2022-10-13T09:31:24.063Z,15.45
2022-10-13T09:34:23.338Z,16.11
2022-10-13T09:37:05.118Z,16.28
2022-10-13T09:39:33.951Z,16.03
2022-10-13T09:42:24.312Z,16.12
2022-10-13T09:44:58.764Z,16.22
2022-10-13T09:47:27.537Z,15.92
2022-10-13T09:50:26.740Z,15.99
2022-10-13T09:53:20.012Z,15.88
2022-10-13T09:55:50.038Z,16.62
2022-10-13T09:58:27.326Z,16.76
2022-10-13T10:00:56.084Z,17.22
2022-10-13T10:03:32.966Z,17.53
2022-10-13T10:06:06.273Z,17.22
2022-10-13T10:09:08.635Z,17.20
2022-10-13T10:11:41.985Z,16.94
2022-10-13T10:14:26.729Z,16.91
2022-10-13T10:17:04.086Z,17.94
2022-10-13T10:19:47.509Z,17.26
2022-10-13T10:22:15.967Z,18.12
2022-10-13T10:24:52.921Z,18.08
2022-10-13T10:27:40.006Z,18.60
2022-10-13T10:30:20.684Z,18.25
2022-10-13T10:33:09.619Z,18.41
2022-10-13T10:35:44.566Z,18.36
2022-10-13T10:38:47.039Z,18.60
2022-10-13T10:41:54.633Z,18.44
2022-10-13T10:44:29.059Z,18.98
2022-10-13T10:47:02.139Z,18.58
2022-10-13T10:49:35.194Z,18.56
2022-10-13T10:52:06.886Z,18.74
2022-10-13T10:54:48.338Z,18.57
2022-10-13T10:57:38.983Z,18.24
2022-10-13T11:00:18.289Z,18.42
2022-10-13T11:02:49.331Z,18.12
2022-10-13T11:05:18.111Z,18.57
2022-10-13T11:07:46.843Z,19.19
2022-10-13T11:10:16.904Z,18.88
2022-10-13T11:12:46.237Z,18.97
2022-10-13T11:15:17.067Z,19.11
2022-10-13T11:17:45.510Z,19.23
2022-10-13T11:20:22.627Z,18.82
2022-10-13T11:23:00.004Z,19.03
2022-10-13T11:25:43.925Z,19.28
2022-10-13T11:28:23.765Z,19.39
2022-10-13T11:30:55.751Z,19.49
2022-10-13T11:33:39.437Z,19.33
2022-10-13T11:36:40.230Z,19.85
2022-10-13T11:39:28.113Z,19.75
2022-10-13T11:42:12.180Z,19.76
2022-10-13T11:44:57.632Z,19.47
2022-10-13T11:47:54.691Z,19.47
2022-10-13T11:50:44.520Z,19.39
2022-10-13T11:53:19.228Z,19.62
2022-10-13T11:55:52.429Z,19.26
2022-10-13T11:58:25.824Z,19.28
2022-10-13T12:00:57.024Z,19.36
2022-10-13T12:03:39.148Z,19.29
2022-10-13T12:06:54.034Z,19.69
2022-10-13T12:09:22.495Z,19.56
2022-10-13T12:12:12.293Z,19.55
2022-10-13T12:14:43.633Z,19.38
2022-10-13T12:17:43.533Z,19.61
2022-10-13T12:20:23.869Z,19.69
2022-10-13T12:22:52.812Z,19.01
2022-10-13T12:25:30.830Z,19.28
2022-10-13T12:28:00.539Z,19.03
2022-10-13T12:30:31.206Z,19.66
2022-10-13T12:33:00.942Z,18.75
2022-10-13T12:35:31.455Z,18.85
2022-10-13T12:38:06.187Z,18.79
2022-10-13T12:40:36.461Z,19.22
2022-10-13T12:43:05.697Z,18.67
2022-10-13T12:45:35.180Z,18.75
2022-10-13T12:48:07.191Z,19.21
2022-10-13T12:50:37.155Z,18.96
2022-10-13T12:53:10.958Z,19.07
2022-10-13T12:55:51.358Z,18.39
2022-10-13T12:58:41.297Z,18.54
2022-10-13T13:01:20.155Z,18.84
2022-10-13T13:03:55.073Z,18.69
2022-10-13T13:06:31.310Z,19.04
2022-10-13T13:09:12.695Z,19.05
2022-10-13T13:11:41.926Z,19.06
2022-10-13T13:14:39.232Z,18.92
2022-10-13T13:20:47.004Z,18.93
2022-10-13T13:23:19.097Z,19.17
2022-10-13T13:25:47.919Z,18.93
2022-10-13T13:28:16.575Z,18.84
2022-10-13T13:30:45.206Z,18.81
2022-10-13T13:33:13.634Z,18.55
2022-10-13T13:35:42.084Z,18.55
2022-10-13T13:38:10.710Z,18.72
2022-10-13T13:40:38.982Z,18.59
2022-10-13T13:43:08.849Z,18.63
2022-10-13T13:45:37.212Z,18.84
2022-10-13T13:48:09.846Z,18.72
2022-10-13T13:50:38.662Z,18.66
2022-10-13T13:53:07.133Z,18.56
2022-10-13T13:55:36.637Z,18.40
2022-10-13T13:58:07.082Z,18.42
2022-10-13T14:00:35.677Z,18.06
2022-10-13T14:03:04.225Z,17.97
2022-10-13T14:05:32.732Z,18.02
2022-10-13T14:08:02.538Z,18.24
2022-10-13T14:10:30.924Z,18.32
2022-10-13T14:12:59.364Z,18.42
2022-10-13T14:15:29.881Z,18.03
2022-10-13T14:17:58.909Z,17.93
2022-10-13T14:20:27.680Z,18.12
2022-10-13T14:22:56.197Z,18.06
2022-10-13T14:25:25.098Z,17.58
2022-10-13T14:27:53.682Z,18.06
2022-10-13T14:30:25.560Z,17.96
2022-10-13T14:32:54.367Z,18.03
2022-10-13T14:35:24.461Z,17.67
2022-10-13T14:37:52.999Z,17.55
2022-10-13T14:40:21.350Z,18.05
2022-10-13T14:42:49.745Z,18.04
2022-10-13T14:45:18.413Z,18.12
2022-10-13T14:47:46.883Z,17.98
2022-10-13T14:50:15.428Z,17.72
2022-10-13T14:52:45.380Z,17.80
2022-10-13T14:55:13.869Z,17.62
2022-10-13T14:57:44.798Z,17.72
2022-10-13T15:00:18.560Z,17.37
2022-10-13T15:02:49.818Z,17.75
2022-10-13T15:05:20.409Z,17.73
2022-10-13T15:07:50.016Z,17.48
2022-10-13T15:10:21.633Z,16.98
2022-10-13T15:12:51.070Z,17.16
2022-10-13T15:15:20.050Z,17.33
2022-10-13T15:17:49.299Z,17.19
2022-10-13T15:20:18.451Z,16.39
2022-10-13T15:22:48.046Z,17.02
2022-10-13T15:25:16.627Z,17.21
2022-10-13T15:27:44.998Z,17.11
2022-10-13T15:30:13.850Z,16.79
2022-10-13T15:32:43.349Z,17.08
2022-10-13T15:35:14.303Z,16.99
2022-10-13T15:37:42.875Z,16.99
2022-10-13T15:40:14.649Z,16.99
2022-10-13T15:42:43.065Z,16.66
2022-10-13T15:45:12.548Z,16.66
2022-10-13T15:47:41.083Z,16.98
2022-10-13T15:50:11.352Z,16.97
2022-10-13T15:52:40.650Z,16.95
2022-10-13T15:55:10.958Z,16.74
2022-10-13T15:57:40.479Z,16.81
2022-10-13T16:00:12.075Z,16.54
2022-10-13T16:02:41.528Z,16.08
2022-10-13T16:05:13.798Z,16.34
2022-10-13T16:07:46.432Z,16.43
2022-10-13T16:10:16.863Z,16.22
2022-10-13T16:12:49.447Z,16.27
2022-10-13T16:15:18.415Z,16.17
2022-10-13T16:17:49.215Z,15.92
2022-10-13T16:20:17.658Z,15.94
2022-10-13T16:22:46.479Z,15.90
2022-10-13T16:25:15.302Z,15.91
2022-10-13T16:27:44.856Z,15.76
2022-10-13T16:30:14.066Z,15.88
2022-10-13T16:32:42.837Z,15.94
2022-10-13T16:35:12.667Z,15.89
2022-10-13T16:37:43.312Z,15.49
2022-10-13T16:40:14.465Z,15.63
2022-10-13T16:42:44.476Z,15.92
2022-10-13T16:45:14.267Z,15.72
2022-10-13T16:47:46.536Z,15.51
2022-10-13T16:50:18.231Z,15.56
2022-10-13T16:52:49.219Z,15.30
2022-10-13T16:55:18.719Z,15.39
2022-10-13T16:57:48.760Z,15.20
2022-10-13T17:00:24.827Z,14.94
2022-10-13T17:02:54.753Z,14.75
2022-10-13T17:05:23.276Z,14.73
2022-10-13T17:07:53.743Z,14.65
2022-10-13T17:10:23.372Z,14.57
2022-10-13T17:12:56.163Z,14.53
2022-10-13T17:15:24.677Z,14.46
2022-10-13T17:17:55.113Z,14.42
2022-10-13T17:20:28.349Z,14.66
2022-10-13T17:22:59.049Z,14.75
2022-10-13T17:25:33.083Z,14.82
2022-10-13T17:28:08.856Z,14.74
2022-10-13T17:30:39.795Z,14.82
2022-10-13T17:33:15.290Z,14.54
2022-10-13T17:35:48.743Z,14.46
2022-10-13T17:38:17.316Z,14.60
2022-10-13T17:40:47.382Z,14.63
2022-10-13T17:43:18.799Z,14.48
2022-10-13T17:45:48.936Z,14.53
2022-10-13T17:48:27.840Z,14.25
2022-10-13T17:53:49.468Z,14.08
2022-10-13T17:56:31.636Z,14.35
2022-10-13T17:59:12.143Z,14.05
2022-10-13T18:01:48.677Z,13.48
2022-10-13T18:04:24.135Z,13.60
2022-10-13T18:06:53.165Z,13.71
2022-10-13T18:09:23.592Z,13.92
2022-10-13T18:11:54.520Z,14.34
2022-10-13T18:14:26.846Z,14.47
2022-10-13T18:17:01.053Z,14.30
2022-10-13T18:19:30.792Z,14.08
2022-10-13T18:22:05.181Z,13.76
2022-10-13T18:24:35.124Z,13.72
2022-10-13T18:27:05.486Z,13.69
2022-10-13T18:29:43.783Z,13.02
2022-10-13T18:32:13.351Z,13.45
2022-10-13T18:34:43.805Z,13.70
2022-10-13T18:37:15.437Z,13.28
2022-10-13T18:39:45.055Z,13.23
2022-10-13T18:42:14.655Z,13.16
2022-10-13T18:44:46.842Z,13.38
2022-10-13T18:47:15.578Z,12.52
2022-10-13T18:49:43.988Z,12.38
2022-10-13T18:52:13.218Z,12.82
2022-10-13T18:54:51.418Z,12.62
2022-10-13T18:57:23.780Z,12.78
2022-10-13T18:59:54.222Z,13.10
2022-10-13T19:02:30.841Z,13.03
2022-10-13T19:04:59.580Z,13.37
2022-10-13T19:07:28.599Z,12.92
2022-10-13T19:10:00.131Z,13.25
2022-10-13T19:12:28.667Z,13.31
2022-10-13T19:15:00.780Z,12.81
2022-10-13T19:17:31.003Z,12.86
2022-10-13T19:20:00.388Z,12.80
2022-10-13T19:22:29.193Z,12.80
2022-10-13T19:25:01.948Z,12.79
2022-10-13T19:27:30.379Z,13.01
2022-10-13T19:29:59.215Z,12.91
2022-10-13T19:32:30.083Z,12.69
2022-10-13T19:34:58.816Z,13.03
2022-10-13T19:37:28.730Z,12.91
2022-10-13T19:39:57.334Z,13.10
2022-10-13T19:42:26.508Z,13.13
2022-10-13T19:44:55.167Z,12.99
2022-10-13T19:47:23.897Z,13.08
2022-10-13T19:49:52.921Z,12.88
2022-10-13T19:52:24.044Z,12.54
2022-10-13T19:54:53.013Z,12.13
2022-10-13T19:57:21.694Z,12.53
2022-10-13T19:59:51.512Z,12.50
2022-10-13T20:02:20.201Z,12.69
2022-10-13T20:04:49.116Z,12.69
2022-10-13T20:07:17.706Z,12.65
2022-10-13T20:09:46.529Z,12.76
2022-10-13T20:12:15.113Z,12.73
2022-10-13T20:14:48.309Z,12.60
2022-10-13T20:17:16.931Z,12.43
2022-10-13T20:19:45.371Z,12.46
2022-10-13T20:22:14.052Z,12.49
2022-10-13T20:24:42.938Z,12.50
2022-10-13T20:27:11.529Z,11.86
2022-10-13T20:29:40.437Z,12.19
2022-10-13T20:32:09.054Z,11.96
2022-10-13T20:34:37.699Z,12.07
2022-10-13T20:37:06.327Z,11.94
2022-10-13T20:39:35.111Z,11.86
2022-10-13T20:42:04.211Z,12.04
2022-10-13T20:44:32.919Z,12.07
2022-10-13T20:47:02.472Z,11.84
2022-10-13T20:49:32.028Z,12.04
2022-10-13T20:52:00.431Z,12.36
2022-10-13T20:54:37.217Z,12.43
2022-10-13T20:57:06.100Z,12.60
2022-10-13T20:59:34.616Z,12.56
2022-10-13T21:02:03.839Z,12.69
2022-10-13T21:04:32.592Z,12.61
2022-10-13T21:07:01.351Z,12.58
2022-10-13T21:09:30.949Z,12.48
2022-10-13T21:11:59.468Z,12.42
2022-10-13T21:14:28.051Z,12.35
2022-10-13T21:16:56.431Z,12.29
2022-10-13T21:19:25.408Z,11.87
2022-10-13T21:21:53.711Z,11.96
2022-10-13T21:24:22.721Z,12.20
2022-10-13T21:26:51.126Z,12.36
2022-10-13T21:29:19.620Z,12.14
2022-10-13T21:31:48.252Z,11.97
2022-10-13T21:34:17.270Z,12.04
2022-10-13T21:36:45.922Z,12.31
2022-10-13T21:39:16.010Z,12.11
2022-10-13T21:41:44.407Z,12.38
2022-10-13T21:44:16.272Z,12.36
2022-10-13T21:46:45.241Z,12.35
2022-10-13T21:49:13.631Z,12.18
2022-10-13T21:51:42.253Z,12.10
2022-10-13T21:54:12.145Z,11.96
2022-10-13T21:56:41.182Z,11.86
2022-10-13T21:59:11.437Z,11.71
2022-10-13T22:01:39.997Z,11.94
2022-10-13T22:04:14.297Z,12.13
2022-10-13T22:06:43.183Z,12.16
2022-10-13T22:09:12.134Z,12.38
2022-10-13T22:11:41.532Z,11.96
2022-10-13T22:14:12.648Z,11.92
2022-10-13T22:16:49.057Z,11.86
2022-10-13T22:19:17.971Z,11.67
2022-10-13T22:21:47.896Z,11.90
2022-10-13T22:24:18.831Z,11.51
2022-10-13T22:26:47.730Z,11.61
2022-10-13T22:29:18.100Z,11.76
2022-10-13T22:31:47.029Z,11.48
2022-10-13T22:34:15.602Z,11.19
2022-10-13T22:36:45.006Z,10.44
2022-10-13T22:39:14.109Z,10.63
2022-10-13T22:41:42.499Z,10.64
2022-10-13T22:44:11.248Z,10.61
2022-10-13T22:46:39.702Z,10.83
2022-10-13T22:49:13.689Z,10.83
2022-10-13T22:51:42.443Z,10.92
2022-10-13T22:54:10.851Z,11.07
2022-10-13T22:56:40.167Z,11.43
2022-10-13T22:59:08.722Z,11.51
2022-10-13T23:01:37.420Z,11.48
2022-10-13T23:04:05.866Z,11.53
2022-10-13T23:06:34.600Z,11.78
2022-10-13T23:09:05.076Z,11.58
2022-10-13T23:11:34.067Z,11.37
2022-10-13T23:14:02.576Z,11.47
2022-10-13T23:16:30.970Z,11.31
2022-10-13T23:19:00.175Z,11.60
2022-10-13T23:21:29.431Z,11.57
2022-10-13T23:24:02.592Z,11.28
2022-10-13T23:26:31.056Z,11.39
2022-10-13T23:29:00.427Z,11.40
2022-10-13T23:31:29.391Z,11.56
2022-10-13T23:33:58.894Z,11.50
2022-10-13T23:36:29.248Z,11.39
2022-10-13T23:38:59.035Z,11.53
2022-10-13T23:41:27.691Z,11.44
2022-10-13T23:43:56.269Z,11.47
2022-10-13T23:46:24.701Z,11.44
2022-10-13T23:48:53.054Z,11.39
2022-10-13T23:51:23.450Z,11.48
2022-10-13T23:53:52.444Z,11.53
2022-10-13T23:56:20.847Z,11.52
2022-10-13T23:58:49.772Z,11.42
